createdAt,value
2022-12-03T00:01:51.388Z,70
2022-12-03T00:04:23.240Z,70
2022-12-03T00:06:53.921Z,70
2022-12-03T00:09:24.332Z,70
2022-12-03T00:11:53.675Z,70
2022-12-03T00:14:24.851Z,70
2022-12-03T00:16:56.123Z,69
2022-12-03T00:19:25.055Z,69
2022-12-03T00:21:56.233Z,69
2022-12-03T00:24:27.053Z,69
2022-12-03T00:27:01.598Z,69
2022-12-03T00:29:32.245Z,70
2022-12-03T00:32:02.730Z,70
2022-12-03T00:34:33.102Z,70
2022-12-03T00:37:04.086Z,69
2022-12-03T00:39:35.021Z,69
2022-12-03T00:42:05.738Z,69
2022-12-03T00:44:36.616Z,70
2022-12-03T00:47:08.016Z,70
2022-12-03T00:49:38.542Z,70
2022-12-03T00:52:10.720Z,70
2022-12-03T00:54:40.353Z,70
2022-12-03T00:57:11.489Z,70
2022-12-03T00:59:42.703Z,70
2022-12-03T01:02:13.945Z,69
2022-12-03T01:04:44.836Z,69
2022-12-03T01:07:15.452Z,69
2022-12-03T01:09:46.558Z,69
2022-12-03T01:12:17.067Z,69
2022-12-03T01:14:48.794Z,69
2022-12-03T01:17:20.949Z,69
2022-12-03T01:19:52.263Z,69
2022-12-03T01:22:23.198Z,69
2022-12-03T01:24:54.527Z,69
2022-12-03T01:27:24.971Z,69
2022-12-03T01:29:55.777Z,69
2022-12-03T01:32:27.158Z,69
2022-12-03T01:34:58.419Z,69
2022-12-03T01:37:31.306Z,69
2022-12-03T01:40:02.387Z,70
2022-12-03T01:42:33.245Z,70
2022-12-03T01:45:04.835Z,71
2022-12-03T01:47:35.102Z,71
2022-12-03T01:50:05.574Z,71
2022-12-03T01:52:36.764Z,70
2022-12-03T01:55:08.072Z,70
2022-12-03T01:57:39.398Z,71
2022-12-03T02:00:10.602Z,71
2022-12-03T02:02:41.625Z,71
2022-12-03T02:05:12.684Z,71
2022-12-03T02:07:43.721Z,71
2022-12-03T02:10:14.431Z,71
2022-12-03T02:12:45.726Z,72
2022-12-03T02:15:15.966Z,71
2022-12-03T02:17:46.938Z,72
2022-12-03T02:20:18.056Z,72
2022-12-03T02:22:49.217Z,71
2022-12-03T02:25:21.009Z,72
2022-12-03T02:27:51.626Z,71
2022-12-03T02:30:23.079Z,72
2022-12-03T02:32:53.584Z,71
2022-12-03T02:35:25.037Z,72
2022-12-03T02:37:55.391Z,72
2022-12-03T02:40:26.748Z,72
2022-12-03T02:42:58.459Z,72
2022-12-03T02:45:29.416Z,72
2022-12-03T02:48:01.099Z,72
2022-12-03T02:50:31.848Z,72
2022-12-03T02:53:03.084Z,72
2022-12-03T02:55:36.973Z,72
2022-12-03T02:58:04.223Z,72
2022-12-03T03:00:35.576Z,72
2022-12-03T03:03:06.167Z,72
2022-12-03T03:05:37.020Z,72
2022-12-03T03:08:08.433Z,72
2022-12-03T03:10:40.107Z,72
2022-12-03T03:13:11.019Z,72
2022-12-03T03:15:42.308Z,72
2022-12-03T03:18:13.601Z,72
2022-12-03T03:20:44.887Z,72
2022-12-03T03:23:15.632Z,72
2022-12-03T03:25:46.886Z,72
2022-12-03T03:28:18.182Z,72
2022-12-03T03:30:49.713Z,72
2022-12-03T03:33:20.627Z,72
2022-12-03T03:35:50.097Z,72
2022-12-03T03:38:21.450Z,72
2022-12-03T03:40:52.720Z,72
2022-12-03T03:43:23.914Z,72
2022-12-03T03:45:55.219Z,73
2022-12-03T03:48:25.962Z,72
2022-12-03T03:50:57.053Z,73
2022-12-03T03:53:28.539Z,72
2022-12-03T03:55:59.686Z,72
2022-12-03T03:58:30.678Z,73
2022-12-03T04:01:02.601Z,72
2022-12-03T04:03:31.918Z,72
2022-12-03T04:06:03.296Z,73
2022-12-03T04:08:33.935Z,73
2022-12-03T04:11:04.784Z,73
2022-12-03T04:13:35.440Z,73
2022-12-03T04:16:05.982Z,73
2022-12-03T04:18:37.246Z,73
2022-12-03T04:21:07.826Z,73
2022-12-03T04:23:39.307Z,72
2022-12-03T04:26:10.811Z,73
2022-12-03T04:28:42.746Z,72
2022-12-03T04:31:13.208Z,72
2022-12-03T04:33:44.218Z,72
2022-12-03T04:36:14.829Z,73
2022-12-03T04:38:45.790Z,73
2022-12-03T04:41:16.257Z,73
2022-12-03T04:43:47.507Z,72
2022-12-03T04:46:18.569Z,72
2022-12-03T04:48:49.696Z,72
2022-12-03T04:51:20.290Z,72
2022-12-03T04:53:51.939Z,72
2022-12-03T04:56:22.873Z,72
2022-12-03T04:58:53.911Z,72
2022-12-03T05:01:24.994Z,72
2022-12-03T05:03:54.848Z,72
2022-12-03T05:06:25.809Z,72
2022-12-03T05:08:57.029Z,72
2022-12-03T05:11:28.421Z,72
2022-12-03T05:13:59.530Z,72
2022-12-03T05:16:30.256Z,72
2022-12-03T05:19:00.843Z,72
2022-12-03T05:21:31.770Z,73
2022-12-03T05:24:02.610Z,72
2022-12-03T05:26:33.124Z,72
2022-12-03T05:29:04.535Z,72
2022-12-03T05:31:36.261Z,72
2022-12-03T05:34:07.455Z,72
2022-12-03T05:36:39.085Z,72
2022-12-03T05:39:10.998Z,72
2022-12-03T05:41:42.386Z,72
2022-12-03T05:44:18.966Z,72
2022-12-03T05:46:44.962Z,72
2022-12-03T05:49:16.306Z,72
2022-12-03T05:51:46.697Z,72
2022-12-03T05:54:17.881Z,73
2022-12-03T05:56:50.467Z,72
2022-12-03T05:59:21.623Z,72
2022-12-03T06:01:52.892Z,73
2022-12-03T06:04:24.189Z,72
2022-12-03T06:06:56.026Z,73
2022-12-03T06:09:27.788Z,73
2022-12-03T06:11:59.554Z,73
2022-12-03T06:14:30.840Z,72
2022-12-03T06:17:02.438Z,72
2022-12-03T06:19:33.052Z,72
2022-12-03T06:22:03.946Z,72
2022-12-03T06:24:34.242Z,73
2022-12-03T06:27:05.046Z,73
2022-12-03T06:29:36.022Z,73
2022-12-03T06:32:06.877Z,73
2022-12-03T06:34:37.983Z,73
2022-12-03T06:37:09.622Z,72
2022-12-03T06:39:41.062Z,72
2022-12-03T06:42:12.292Z,73
2022-12-03T06:44:43.622Z,73
2022-12-03T06:47:14.286Z,72
2022-12-03T06:49:45.603Z,72
2022-12-03T06:52:16.397Z,73
2022-12-03T06:54:47.227Z,73
2022-12-03T06:57:17.411Z,73
2022-12-03T06:59:47.724Z,73
2022-12-03T07:02:19.474Z,73
2022-12-03T07:04:50.871Z,73
2022-12-03T07:07:21.891Z,73
2022-12-03T07:09:53.549Z,73
2022-12-03T07:12:25.236Z,72
2022-12-03T07:14:56.885Z,72
2022-12-03T07:17:27.585Z,72
2022-12-03T07:19:58.495Z,72
2022-12-03T07:22:27.891Z,73
2022-12-03T07:24:58.610Z,72
2022-12-03T07:27:29.676Z,73
2022-12-03T07:30:00.495Z,73
2022-12-03T07:32:31.238Z,74
2022-12-03T07:35:03.334Z,75
2022-12-03T07:37:34.611Z,75
2022-12-03T07:40:05.542Z,74
2022-12-03T07:42:36.505Z,74
2022-12-03T07:45:07.471Z,74
2022-12-03T07:47:38.359Z,74
2022-12-03T07:50:09.303Z,74
2022-12-03T07:52:39.796Z,74
2022-12-03T07:55:11.046Z,73
2022-12-03T07:57:41.827Z,72
2022-12-03T08:00:14.163Z,72
2022-12-03T08:02:43.867Z,72
2022-12-03T08:05:14.597Z,72
2022-12-03T08:07:45.086Z,71
2022-12-03T08:10:16.283Z,71
2022-12-03T08:12:46.846Z,71
2022-12-03T08:15:17.974Z,72
2022-12-03T08:17:48.585Z,72
2022-12-03T08:20:20.971Z,71
2022-12-03T08:22:52.058Z,71
2022-12-03T08:25:23.039Z,71
2022-12-03T08:27:54.091Z,70
2022-12-03T08:30:25.455Z,70
2022-12-03T08:32:56.263Z,70
2022-12-03T08:35:27.646Z,70
2022-12-03T08:37:59.037Z,70
2022-12-03T08:40:30.969Z,70
2022-12-03T08:43:00.101Z,69
2022-12-03T08:45:31.412Z,69
2022-12-03T08:48:02.345Z,69
2022-12-03T08:50:33.047Z,69
2022-12-03T08:53:02.282Z,69
2022-12-03T08:55:33.346Z,69
2022-12-03T08:58:03.759Z,69
2022-12-03T09:00:34.912Z,69
2022-12-03T09:03:06.247Z,69
2022-12-03T09:05:37.433Z,69
2022-12-03T09:08:08.211Z,69
2022-12-03T09:10:40.876Z,69
2022-12-03T09:13:11.693Z,69
2022-12-03T09:15:43.458Z,69
2022-12-03T09:18:14.358Z,68
2022-12-03T09:20:45.533Z,68
2022-12-03T09:23:17.864Z,68
2022-12-03T09:25:49.573Z,68
2022-12-03T09:28:20.590Z,68
2022-12-03T09:30:51.829Z,67
2022-12-03T09:33:22.767Z,68
2022-12-03T09:35:54.207Z,67
2022-12-03T09:38:25.443Z,67
2022-12-03T09:40:57.103Z,67
2022-12-03T09:43:43.305Z,67
2022-12-03T09:45:59.125Z,66
2022-12-03T09:48:30.331Z,67
2022-12-03T09:51:01.256Z,67
2022-12-03T09:53:33.708Z,66
2022-12-03T09:56:03.261Z,66
2022-12-03T09:58:34.980Z,66
2022-12-03T10:01:04.807Z,66
2022-12-03T10:03:35.591Z,66
2022-12-03T10:06:06.230Z,66
2022-12-03T10:08:37.622Z,66
2022-12-03T10:11:09.050Z,66
2022-12-03T10:13:40.332Z,66
2022-12-03T10:16:11.548Z,66
2022-12-03T10:18:42.664Z,65
2022-12-03T10:21:14.176Z,65
2022-12-03T10:23:44.697Z,65
2022-12-03T10:26:16.126Z,65
2022-12-03T10:28:47.672Z,65
2022-12-03T10:31:18.514Z,65
2022-12-03T10:33:50.066Z,64
2022-12-03T10:36:22.123Z,64
2022-12-03T10:38:53.227Z,64
2022-12-03T10:41:24.664Z,64
2022-12-03T10:43:55.796Z,64
2022-12-03T10:46:26.857Z,65
2022-12-03T10:48:58.501Z,64
2022-12-03T10:51:29.804Z,64
2022-12-03T10:54:01.086Z,64
2022-12-03T10:56:32.341Z,64
2022-12-03T10:59:04.695Z,64
2022-12-03T11:01:35.879Z,64
2022-12-03T11:04:07.156Z,64
2022-12-03T11:06:38.017Z,63
2022-12-03T11:09:09.423Z,63
2022-12-03T11:11:40.325Z,63
2022-12-03T11:14:11.963Z,63
2022-12-03T11:16:42.848Z,63
2022-12-03T11:19:14.018Z,63
2022-12-03T11:21:45.401Z,63
2022-12-03T11:24:16.311Z,63
2022-12-03T11:26:47.228Z,63
2022-12-03T11:29:18.364Z,63
2022-12-03T11:31:49.300Z,63
2022-12-03T11:34:20.478Z,63
2022-12-03T11:37:01.360Z,63
2022-12-03T11:39:22.718Z,63
2022-12-03T11:41:53.549Z,63
2022-12-03T11:44:24.829Z,63
2022-12-03T11:46:56.097Z,63
2022-12-03T11:49:28.632Z,63
2022-12-03T11:51:59.457Z,63
2022-12-03T11:54:30.628Z,63
2022-12-03T11:57:01.701Z,63
2022-12-03T11:59:33.054Z,63
2022-12-03T12:02:04.053Z,63
2022-12-03T12:04:35.255Z,63
2022-12-03T12:07:06.246Z,64
2022-12-03T12:09:37.633Z,64
2022-12-03T12:12:08.668Z,64
2022-12-03T12:14:40.568Z,64
2022-12-03T12:17:11.852Z,64
2022-12-03T12:19:43.592Z,64
2022-12-03T12:22:14.440Z,64
2022-12-03T12:24:45.581Z,64
2022-12-03T12:27:16.820Z,64
2022-12-03T12:29:48.251Z,64
2022-12-03T12:32:19.090Z,64
2022-12-03T12:34:50.554Z,64
2022-12-03T12:37:21.813Z,64
2022-12-03T12:39:53.681Z,64
2022-12-03T12:42:24.473Z,64
2022-12-03T12:44:55.634Z,64
2022-12-03T12:47:26.808Z,64
2022-12-03T12:49:58.546Z,64
2022-12-03T12:52:30.420Z,64
2022-12-03T12:55:04.806Z,64
2022-12-03T12:57:33.281Z,64
2022-12-03T13:00:05.480Z,63
2022-12-03T13:02:36.647Z,64
2022-12-03T13:05:08.256Z,64
2022-12-03T13:07:39.753Z,63
2022-12-03T13:10:11.030Z,64
2022-12-03T13:12:42.433Z,63
2022-12-03T13:15:14.938Z,64
2022-12-03T13:17:46.108Z,64
2022-12-03T13:20:17.611Z,64
2022-12-03T13:22:48.944Z,64
2022-12-03T13:25:32.744Z,63
2022-12-03T13:27:51.612Z,63
2022-12-03T13:30:23.128Z,63
2022-12-03T13:32:54.827Z,63
2022-12-03T13:35:26.511Z,63
2022-12-03T13:37:58.392Z,63
2022-12-03T13:40:30.368Z,63
2022-12-03T13:45:33.857Z,63
2022-12-03T13:48:05.030Z,63
2022-12-03T13:50:35.991Z,64
2022-12-03T13:53:07.184Z,63
2022-12-03T13:55:38.318Z,64
2022-12-03T13:58:09.266Z,64
2022-12-03T14:00:40.463Z,63
2022-12-03T14:03:11.561Z,63
2022-12-03T14:05:43.513Z,63
2022-12-03T14:08:14.279Z,63
2022-12-03T14:15:48.524Z,64
2022-12-03T14:18:19.360Z,64
2022-12-03T14:20:51.216Z,63
2022-12-03T14:23:22.439Z,63
2022-12-03T14:25:53.793Z,63
2022-12-03T14:28:24.796Z,64
2022-12-03T14:30:55.810Z,63
2022-12-03T14:33:27.054Z,64
2022-12-03T14:35:57.644Z,64
2022-12-03T14:38:29.198Z,64
2022-12-03T14:40:59.993Z,64
2022-12-03T14:43:31.247Z,64
2022-12-03T14:46:02.262Z,65
2022-12-03T14:48:33.357Z,65
2022-12-03T14:51:04.780Z,65
2022-12-03T14:53:35.782Z,65
2022-12-03T14:56:06.575Z,64
2022-12-03T14:58:37.274Z,65
2022-12-03T15:01:08.753Z,64
2022-12-03T15:03:40.298Z,64
2022-12-03T15:06:10.978Z,65
2022-12-03T15:08:42.459Z,65
2022-12-03T15:11:14.776Z,65
2022-12-03T15:13:46.166Z,65
2022-12-03T15:16:18.383Z,65
2022-12-03T15:18:49.256Z,65
2022-12-03T15:21:20.333Z,66
2022-12-03T15:23:51.388Z,66
2022-12-03T15:26:22.712Z,66
2022-12-03T15:28:53.895Z,65
2022-12-03T15:31:25.322Z,66
2022-12-03T15:33:56.526Z,66
2022-12-03T15:36:27.396Z,66
2022-12-03T15:38:58.960Z,66
2022-12-03T15:41:29.773Z,66
2022-12-03T15:44:00.813Z,66
2022-12-03T15:46:31.762Z,66
2022-12-03T15:49:02.949Z,66
2022-12-03T15:51:33.908Z,66
2022-12-03T15:54:04.908Z,66
2022-12-03T15:56:35.708Z,66
2022-12-03T15:59:06.490Z,67
2022-12-03T16:01:38.043Z,67
2022-12-03T16:04:09.267Z,67
2022-12-03T16:06:41.499Z,67
2022-12-03T16:09:12.553Z,67
2022-12-03T16:11:45.477Z,67
2022-12-03T16:14:16.685Z,67
2022-12-03T16:16:48.818Z,67
2022-12-03T16:19:19.645Z,67
2022-12-03T16:21:50.490Z,67
2022-12-03T16:24:21.208Z,68
2022-12-03T16:26:52.458Z,68
2022-12-03T16:29:23.454Z,69
2022-12-03T16:31:52.983Z,69
2022-12-03T16:34:23.778Z,68
2022-12-03T16:36:55.010Z,69
2022-12-03T16:39:25.786Z,69
2022-12-03T16:41:57.278Z,69
2022-12-03T16:44:33.666Z,69
2022-12-03T16:47:04.900Z,69
2022-12-03T16:49:36.177Z,69
2022-12-03T16:52:07.164Z,69
2022-12-03T16:54:38.283Z,69
2022-12-03T16:57:09.359Z,69
2022-12-03T16:59:40.412Z,69
2022-12-03T17:02:11.473Z,69
2022-12-03T17:04:42.655Z,69
2022-12-03T17:07:14.760Z,69
2022-12-03T17:09:45.724Z,69
2022-12-03T17:12:16.903Z,69
2022-12-03T17:14:47.978Z,69
2022-12-03T17:17:18.847Z,69
2022-12-03T17:19:50.147Z,69
2022-12-03T17:22:22.314Z,69
2022-12-03T17:24:53.221Z,69
2022-12-03T17:27:25.129Z,68
2022-12-03T17:29:57.191Z,70
2022-12-03T17:32:26.610Z,70
2022-12-03T17:34:57.690Z,70
2022-12-03T17:37:29.825Z,69
2022-12-03T17:40:01.272Z,69
2022-12-03T17:42:32.247Z,69
2022-12-03T17:45:02.685Z,69
2022-12-03T17:47:33.743Z,69
2022-12-03T17:50:05.387Z,69
2022-12-03T17:52:36.170Z,69
2022-12-03T17:55:13.105Z,69
2022-12-03T17:57:37.747Z,70
2022-12-03T18:00:08.901Z,70
2022-12-03T18:02:39.879Z,70
2022-12-03T18:05:11.342Z,70
2022-12-03T18:07:42.375Z,70
2022-12-03T18:10:13.893Z,69
2022-12-03T18:12:44.947Z,69
2022-12-03T18:15:16.097Z,69
2022-12-03T18:17:46.842Z,69
2022-12-03T18:20:16.212Z,69
2022-12-03T18:22:47.097Z,70
2022-12-03T18:25:18.081Z,70
2022-12-03T18:27:49.007Z,70
2022-12-03T18:30:20.177Z,70
2022-12-03T18:32:51.122Z,71
2022-12-03T18:35:22.051Z,71
2022-12-03T18:37:53.277Z,71
2022-12-03T18:40:24.678Z,71
2022-12-03T18:42:55.540Z,71
2022-12-03T18:45:26.414Z,70
2022-12-03T18:47:58.643Z,70
2022-12-03T18:50:29.664Z,71
2022-12-03T18:53:00.724Z,70
2022-12-03T18:55:31.560Z,70
2022-12-03T18:58:02.761Z,71
2022-12-03T19:00:34.252Z,70
2022-12-03T19:03:05.442Z,70
2022-12-03T19:05:36.313Z,70
2022-12-03T19:08:07.073Z,71
2022-12-03T19:10:38.181Z,70
2022-12-03T19:13:09.988Z,71
2022-12-03T19:15:41.137Z,71
2022-12-03T19:18:12.213Z,71
2022-12-03T19:20:43.821Z,71
2022-12-03T19:23:15.145Z,70
2022-12-03T19:25:46.393Z,70
2022-12-03T19:28:17.364Z,70
2022-12-03T19:30:48.699Z,70
2022-12-03T19:33:22.596Z,70
2022-12-03T19:35:50.757Z,70
2022-12-03T19:38:21.328Z,71
2022-12-03T19:40:52.136Z,71
2022-12-03T19:43:24.331Z,71
2022-12-03T19:45:56.328Z,71
2022-12-03T19:48:30.911Z,71
2022-12-03T19:51:19.672Z,71
2022-12-03T19:53:33.142Z,71
2022-12-03T19:56:07.412Z,71
2022-12-03T19:58:39.622Z,70
2022-12-03T20:01:10.986Z,71
2022-12-03T20:03:42.068Z,71
2022-12-03T20:06:13.725Z,71
2022-12-03T20:08:44.617Z,71
2022-12-03T20:11:14.304Z,71
2022-12-03T20:13:45.440Z,70
2022-12-03T20:16:16.267Z,70
2022-12-03T20:18:46.802Z,71
2022-12-03T20:21:18.041Z,70
2022-12-03T20:23:48.823Z,72
2022-12-03T20:26:19.959Z,70
2022-12-03T20:28:51.038Z,71
2022-12-03T20:31:21.316Z,71
2022-12-03T20:33:52.389Z,71
2022-12-03T20:36:23.442Z,71
2022-12-03T20:38:54.493Z,72
2022-12-03T20:41:25.884Z,72
2022-12-03T20:43:56.789Z,71
2022-12-03T20:46:28.493Z,71
2022-12-03T20:48:59.478Z,71
2022-12-03T20:51:30.501Z,72
2022-12-03T20:54:01.635Z,72
2022-12-03T20:56:33.232Z,72
2022-12-03T20:59:02.636Z,72
2022-12-03T21:01:33.956Z,72
2022-12-03T21:04:06.277Z,71
2022-12-03T21:06:37.215Z,71
2022-12-03T21:09:08.348Z,71
2022-12-03T21:11:39.782Z,71
2022-12-03T21:14:10.998Z,71
2022-12-03T21:19:11.725Z,71
2022-12-03T21:21:42.921Z,71
2022-12-03T21:24:14.888Z,71
2022-12-03T21:26:46.180Z,71
2022-12-03T21:29:17.421Z,71
2022-12-03T21:31:48.781Z,71
2022-12-03T21:34:19.590Z,72
2022-12-03T21:36:50.887Z,72
2022-12-03T21:39:21.433Z,73
2022-12-03T21:42:19.448Z,72
2022-12-03T21:44:23.087Z,72
2022-12-03T21:47:08.515Z,72
2022-12-03T21:49:25.457Z,73
2022-12-03T21:51:56.547Z,73
2022-12-03T21:54:27.592Z,72
2022-12-03T21:56:59.968Z,72
2022-12-03T21:59:30.951Z,72
2022-12-03T22:02:02.189Z,72
2022-12-03T22:04:34.678Z,72
2022-12-03T22:07:05.881Z,72
2022-12-03T22:09:36.746Z,72
2022-12-03T22:12:07.817Z,71
2022-12-03T22:14:38.856Z,72
2022-12-03T22:17:10.551Z,72
2022-12-03T22:19:41.935Z,72
2022-12-03T22:22:13.458Z,72
2022-12-03T22:24:45.068Z,72
2022-12-03T22:27:16.413Z,72
2022-12-03T22:29:47.618Z,72
2022-12-03T22:32:18.426Z,72
2022-12-03T22:34:49.675Z,72
2022-12-03T22:37:20.732Z,73
2022-12-03T22:39:52.688Z,73
2022-12-03T22:42:23.568Z,73
2022-12-03T22:44:58.696Z,72
2022-12-03T22:47:30.126Z,72
2022-12-03T22:50:01.626Z,72
2022-12-03T22:52:32.699Z,72
2022-12-03T22:55:08.685Z,72
2022-12-03T22:57:40.044Z,71
2022-12-03T23:00:12.277Z,71
2022-12-03T23:02:43.983Z,71
2022-12-03T23:05:14.926Z,71
2022-12-03T23:07:45.924Z,72
2022-12-03T23:10:17.157Z,72
2022-12-03T23:12:48.025Z,72
2022-12-03T23:15:19.432Z,72
2022-12-03T23:17:50.094Z,72
2022-12-03T23:20:21.003Z,72
2022-12-03T23:22:51.704Z,72
2022-12-03T23:25:22.669Z,71
2022-12-03T23:27:53.559Z,71
2022-12-03T23:30:24.040Z,71
2022-12-03T23:32:54.713Z,71
2022-12-03T23:35:25.371Z,72
2022-12-03T23:37:56.230Z,72
2022-12-03T23:40:26.563Z,72
2022-12-03T23:42:56.987Z,72
2022-12-03T23:45:27.905Z,71
2022-12-03T23:47:59.122Z,72
2022-12-03T23:50:29.953Z,72
2022-12-03T23:53:01.071Z,72
2022-12-03T23:55:31.856Z,72
2022-12-03T23:58:02.405Z,72
